Ventress, Louisiana
Current Conditions -  °F | °C
As of 8:55 AM on Wednesday 26 Nov 2014 (Local Time) from KHZR Reporting Station
Clear Clear  
Wind Chill: 46°   Ceiling: Unl
Heat Index: 48°   Visibility: 10mi
Dew Point: 41°   Wind: 5mph
Humidity: 75%   Direction: 170°S
Pressure: 30.26"   Gusts: NA
Location:  30.68°N, 91.41°W
Report Text: KHZR 261455Z AUTO 17004KT 10SM CLR 09/05 A3026 RMK AO2 T00900048
Loading
Personal Weather Stations






























Interactive Weather Map New forecast layout! Learn more

10-Day Weather Forecast

Advertisements
Track Severe Weather on mobile